createdAt,value
2022-12-18T00:01:22.294Z,-2.67
2022-12-18T00:03:49.557Z,-2.48
2022-12-18T00:06:16.896Z,-2.49
2022-12-18T00:08:44.648Z,-2.56
2022-12-18T00:11:30.732Z,-2.55
2022-12-18T00:13:58.740Z,-2.76
2022-12-18T00:16:27.174Z,-2.80
2022-12-18T00:18:55.940Z,-2.55
2022-12-18T00:21:22.932Z,-2.57
2022-12-18T00:23:50.393Z,-2.62
2022-12-18T00:26:22.281Z,-2.47
2022-12-18T00:28:49.659Z,-2.50
2022-12-18T00:31:19.132Z,-2.76
2022-12-18T00:33:46.152Z,-2.48
2022-12-18T00:36:15.860Z,-2.50
2022-12-18T00:38:43.443Z,-2.46
2022-12-18T00:43:39.708Z,-2.70
2022-12-18T00:46:07.212Z,-3.14
2022-12-18T00:48:34.198Z,-2.95
2022-12-18T00:51:01.082Z,-2.63
2022-12-18T00:53:27.979Z,-3.00
2022-12-18T00:55:54.855Z,-2.83
2022-12-18T00:58:21.736Z,-2.94
2022-12-18T01:00:48.657Z,-2.79
2022-12-18T01:03:16.035Z,-2.88
2022-12-18T01:05:43.396Z,-2.98
2022-12-18T01:08:10.295Z,-3.22
2022-12-18T01:10:37.214Z,-3.45
2022-12-18T01:13:04.093Z,-3.16
2022-12-18T01:15:30.985Z,-3.06
2022-12-18T01:17:58.054Z,-3.31
2022-12-18T01:20:25.071Z,-3.43
2022-12-18T01:22:51.956Z,-3.41
2022-12-18T01:25:18.905Z,-3.00
2022-12-18T01:27:48.782Z,-2.99
2022-12-18T01:30:16.055Z,-2.97
2022-12-18T01:32:43.306Z,-2.96
2022-12-18T01:35:10.209Z,-3.08
2022-12-18T01:37:37.092Z,-3.26
2022-12-18T01:40:04.509Z,-2.95
2022-12-18T01:42:31.389Z,-3.10
2022-12-18T01:45:06.343Z,-3.15
2022-12-18T01:47:42.445Z,-3.27
2022-12-18T01:50:13.829Z,-2.95
2022-12-18T01:52:41.739Z,-2.95
2022-12-18T01:55:09.263Z,-3.30
2022-12-18T01:57:36.178Z,-3.24
2022-12-18T02:00:08.991Z,-3.05
2022-12-18T02:02:36.411Z,-5.59
2022-12-18T02:05:03.848Z,-3.37
2022-12-18T02:07:44.831Z,-3.69
2022-12-18T02:10:28.611Z,-3.10
2022-12-18T02:13:02.915Z,-3.16
2022-12-18T02:15:33.377Z,-3.16
2022-12-18T02:18:06.082Z,-3.54
2022-12-18T02:20:36.797Z,-3.19
2022-12-18T02:23:24.619Z,-3.31
2022-12-18T02:26:07.581Z,-3.26
2022-12-18T02:28:43.896Z,-3.34
2022-12-18T02:31:14.551Z,-3.26
2022-12-18T02:33:41.812Z,-3.49
2022-12-18T02:36:09.121Z,-3.33
2022-12-18T02:38:36.010Z,-3.29
2022-12-18T02:41:03.388Z,-3.33
2022-12-18T02:43:30.729Z,-3.62
2022-12-18T02:45:59.886Z,-4.47
2022-12-18T02:48:32.321Z,-3.37
2022-12-18T02:51:07.150Z,-3.38
2022-12-18T02:53:43.003Z,-3.40
2022-12-18T02:56:29.925Z,-3.43
2022-12-18T02:59:01.519Z,-3.70
2022-12-18T03:01:40.497Z,-3.45
2022-12-18T03:04:11.319Z,-3.52
2022-12-18T03:06:43.004Z,-3.47
2022-12-18T03:09:12.695Z,-3.52
2022-12-18T03:12:00.479Z,-3.83
2022-12-18T03:14:27.604Z,-3.50
2022-12-18T03:16:55.736Z,-3.53
2022-12-18T03:19:23.763Z,-3.98
2022-12-18T03:21:52.993Z,-4.06
2022-12-18T03:24:19.988Z,-3.61
2022-12-18T03:26:48.626Z,-3.87
2022-12-18T03:29:38.876Z,-3.74
2022-12-18T03:32:13.913Z,-3.95
2022-12-18T03:34:41.618Z,-4.06
2022-12-18T03:37:08.683Z,-3.95
2022-12-18T03:39:36.491Z,-4.04
2022-12-18T03:42:35.584Z,-4.01
2022-12-18T03:45:22.663Z,-3.88
2022-12-18T03:48:02.844Z,-5.24
2022-12-18T03:51:10.650Z,-4.14
2022-12-18T03:53:42.959Z,-3.93
2022-12-18T03:56:10.309Z,-4.44
2022-12-18T03:58:38.330Z,-3.99
2022-12-18T04:01:06.850Z,-4.02
2022-12-18T04:03:33.974Z,-4.12
2022-12-18T04:06:00.909Z,-4.05
2022-12-18T04:08:27.980Z,-4.33
2022-12-18T04:10:54.918Z,-4.33
2022-12-18T04:13:26.240Z,-4.02
2022-12-18T04:15:53.259Z,-4.12
2022-12-18T04:18:20.431Z,-4.35
2022-12-18T04:20:47.519Z,-4.43
2022-12-18T04:23:14.848Z,-3.99
2022-12-18T04:25:41.724Z,-3.97
2022-12-18T04:28:08.639Z,-3.97
2022-12-18T04:30:35.517Z,-4.03
2022-12-18T04:33:02.412Z,-4.19
2022-12-18T04:35:29.281Z,-4.30
2022-12-18T04:37:56.241Z,-4.00
2022-12-18T04:40:23.139Z,-4.01
2022-12-18T04:42:50.046Z,-3.98
2022-12-18T06:02:05.166Z,-4.41
2022-12-18T06:04:32.336Z,-4.52
2022-12-18T06:06:59.237Z,-4.40
2022-12-18T06:09:26.219Z,-4.52
2022-12-18T06:11:53.362Z,-4.61
2022-12-18T06:14:20.298Z,-4.46
2022-12-18T06:16:47.703Z,-4.80
2022-12-18T06:19:16.892Z,-4.45
2022-12-18T06:21:44.396Z,-4.45
2022-12-18T06:24:11.302Z,-4.43
2022-12-18T06:26:41.542Z,-4.61
2022-12-18T06:29:08.441Z,-4.64
2022-12-18T06:31:35.448Z,-4.74
2022-12-18T06:34:05.569Z,-4.42
2022-12-18T06:36:32.512Z,-4.86
2022-12-18T06:38:59.766Z,-4.42
2022-12-18T06:41:27.076Z,-4.41
2022-12-18T06:43:59.357Z,-4.42
2022-12-18T06:46:27.155Z,-4.45
2022-12-18T06:48:54.064Z,-4.39
2022-12-18T06:51:22.147Z,-4.47
2022-12-18T06:53:49.023Z,-4.63
2022-12-18T06:56:15.948Z,-4.34
2022-12-18T06:58:42.905Z,-4.45
2022-12-18T07:01:11.936Z,-4.91
2022-12-18T07:03:40.483Z,-4.34
2022-12-18T07:06:07.870Z,-4.76
2022-12-18T07:08:34.854Z,-4.75
2022-12-18T07:11:04.829Z,-4.40
2022-12-18T07:13:31.948Z,-4.57
2022-12-18T07:16:15.967Z,-4.42
2022-12-18T07:18:44.769Z,-4.48
2022-12-18T07:21:13.905Z,-4.75
2022-12-18T07:23:41.164Z,-4.40
2022-12-18T07:26:10.023Z,-5.45
2022-12-18T07:28:37.575Z,-4.40
2022-12-18T07:31:05.651Z,-4.59
2022-12-18T07:33:34.812Z,-4.42
2022-12-18T07:36:05.635Z,-4.28
2022-12-18T07:38:33.433Z,-4.58
2022-12-18T07:41:03.976Z,-4.27
2022-12-18T07:43:34.115Z,-4.27
2022-12-18T07:46:01.076Z,-4.33
2022-12-18T07:48:29.033Z,-4.65
2022-12-18T07:50:59.924Z,-4.34
2022-12-18T07:53:27.691Z,-4.35
2022-12-18T07:56:25.608Z,-4.69
2022-12-18T07:58:48.639Z,-4.40
2022-12-18T08:01:18.197Z,-4.99
2022-12-18T08:03:45.559Z,-4.47
2022-12-18T08:06:12.527Z,-4.28
2022-12-18T08:08:41.215Z,-4.42
2022-12-18T08:11:08.171Z,-5.34
2022-12-18T08:13:35.054Z,-4.23
2022-12-18T08:16:06.844Z,-4.27
2022-12-18T08:18:34.707Z,-4.31
2022-12-18T08:21:10.724Z,-4.19
2022-12-18T08:23:42.329Z,-4.24
2022-12-18T08:26:10.656Z,-4.31
2022-12-18T08:28:37.527Z,-4.15
2022-12-18T08:31:04.981Z,-4.20
2022-12-18T08:33:32.036Z,-4.24
2022-12-18T08:36:02.579Z,-4.13
2022-12-18T08:38:29.508Z,-4.43
2022-12-18T08:41:03.826Z,-3.96
2022-12-18T08:43:49.372Z,-3.96
2022-12-18T08:46:20.441Z,-4.08
2022-12-18T08:48:47.639Z,-3.94
2022-12-18T08:51:16.862Z,-3.91
2022-12-18T08:53:44.152Z,-3.81
2022-12-18T08:56:11.612Z,-3.77
2022-12-18T08:58:38.518Z,-3.93
2022-12-18T09:01:07.092Z,-3.84
2022-12-18T09:03:34.117Z,-4.18
2022-12-18T09:06:01.064Z,-4.27
2022-12-18T09:08:28.511Z,-3.69
2022-12-18T09:10:58.999Z,-3.50
2022-12-18T09:13:25.974Z,-3.89
2022-12-18T09:15:54.142Z,-3.79
2022-12-18T09:18:22.957Z,-3.59
2022-12-18T09:20:51.231Z,-3.53
2022-12-18T09:23:18.248Z,-3.29
2022-12-18T09:25:45.676Z,-3.62
2022-12-18T09:28:14.251Z,-3.17
2022-12-18T09:30:42.892Z,-3.09
2022-12-18T09:33:09.788Z,-3.03
2022-12-18T09:35:40.735Z,-3.39
2022-12-18T09:38:09.358Z,-3.11
2022-12-18T09:40:40.933Z,-3.11
2022-12-18T09:43:08.358Z,-2.77
2022-12-18T09:45:42.126Z,-2.74
2022-12-18T09:48:22.834Z,-2.70
2022-12-18T09:50:50.031Z,-3.00
2022-12-18T09:53:20.678Z,-2.64
2022-12-18T09:55:48.680Z,-2.62
2022-12-18T09:58:41.138Z,-2.60
2022-12-18T10:01:13.339Z,-2.58
2022-12-18T10:03:40.344Z,-2.64
2022-12-18T10:06:33.338Z,-2.62
2022-12-18T10:09:07.745Z,-2.48
2022-12-18T10:11:34.556Z,-2.44
2022-12-18T10:14:07.241Z,-2.39
2022-12-18T10:16:44.421Z,-2.62
2022-12-18T10:19:40.669Z,-2.30
2022-12-18T10:22:44.442Z,-2.26
2022-12-18T10:25:48.986Z,-2.23
2022-12-18T10:28:17.717Z,-2.38
2022-12-18T10:30:45.193Z,-2.24
2022-12-18T10:33:22.520Z,-2.23
2022-12-18T10:35:51.720Z,-2.21
2022-12-18T10:38:18.546Z,-2.12
2022-12-18T10:40:54.326Z,-3.46
2022-12-18T10:43:24.601Z,-2.34
2022-12-18T10:46:00.600Z,-2.06
2022-12-18T10:48:28.017Z,-2.32
2022-12-18T10:51:10.941Z,-2.31
2022-12-18T10:53:40.813Z,-1.98
2022-12-18T10:56:07.986Z,-2.07
2022-12-18T10:58:36.572Z,-2.20
2022-12-18T11:01:14.527Z,-1.95
2022-12-18T11:03:44.366Z,-2.62
2022-12-18T11:06:16.410Z,-2.28
2022-12-18T11:08:44.975Z,-2.03
2022-12-18T11:11:21.948Z,-2.19
2022-12-18T11:14:13.490Z,-2.38
2022-12-18T11:17:23.736Z,-2.06
2022-12-18T11:19:38.871Z,-2.14
2022-12-18T11:22:24.431Z,-1.81
2022-12-18T11:27:55.853Z,-1.88
2022-12-18T11:30:32.728Z,-1.71
2022-12-18T11:33:05.436Z,-1.91
2022-12-18T11:35:42.174Z,-2.06
2022-12-18T11:38:26.851Z,-1.67
2022-12-18T11:41:13.901Z,-1.65
2022-12-18T11:43:57.155Z,-1.65
2022-12-18T11:46:59.237Z,-1.71
2022-12-18T11:49:36.519Z,-1.64
2022-12-18T11:52:25.646Z,-1.84
2022-12-18T11:54:54.280Z,-1.68
2022-12-18T11:57:39.340Z,-1.84
2022-12-18T12:00:29.950Z,-1.60
2022-12-18T12:03:14.920Z,-1.94
2022-12-18T12:06:09.310Z,-1.71
2022-12-18T12:09:07.980Z,-1.82
2022-12-18T12:11:59.429Z,-1.90
2022-12-18T12:14:36.188Z,-1.41
2022-12-18T12:17:08.950Z,-1.37
2022-12-18T12:19:42.076Z,-1.32
2022-12-18T12:22:21.489Z,-1.61
2022-12-18T12:25:09.932Z,-1.26
2022-12-18T12:27:48.858Z,-1.48
2022-12-18T12:31:07.093Z,-1.21
2022-12-18T12:34:11.248Z,-1.18
2022-12-18T12:36:57.475Z,-1.48
2022-12-18T12:39:28.323Z,-1.28
2022-12-18T12:42:13.796Z,-1.41
2022-12-18T12:44:58.860Z,-1.29
2022-12-18T12:47:34.338Z,-1.15
2022-12-18T12:50:05.061Z,-1.02
2022-12-18T12:52:36.289Z,-1.06
2022-12-18T12:55:08.033Z,-1.07
2022-12-18T12:57:40.444Z,-1.18
2022-12-18T13:00:11.304Z,-1.05
2022-12-18T13:02:38.685Z,-0.94
2022-12-18T13:05:34.923Z,-1.21
2022-12-18T13:08:12.379Z,-1.10
2022-12-18T13:10:42.878Z,-1.16
2022-12-18T13:13:19.497Z,-1.04
2022-12-18T13:16:11.653Z,-1.24
2022-12-18T13:18:39.067Z,-1.14
2022-12-18T13:21:22.551Z,-0.87
2022-12-18T13:23:49.496Z,-1.20
2022-12-18T13:26:24.735Z,-0.84
2022-12-18T13:28:56.042Z,-1.24
2022-12-18T13:31:49.147Z,-0.81
2022-12-18T13:34:28.575Z,-0.84
2022-12-18T13:37:00.569Z,-0.96
2022-12-18T13:39:35.482Z,-0.76
2022-12-18T13:42:05.784Z,-0.75
2022-12-18T13:44:40.630Z,-0.79
2022-12-18T13:47:38.712Z,-0.72
2022-12-18T13:50:32.267Z,-0.72
2022-12-18T13:53:02.465Z,-1.16
2022-12-18T13:55:29.689Z,-0.88
2022-12-18T13:58:06.163Z,-1.02
2022-12-18T14:00:33.070Z,-0.86
2022-12-18T14:03:00.603Z,-0.78
2022-12-18T14:05:31.004Z,-0.95
2022-12-18T14:08:22.267Z,-0.69
2022-12-18T14:10:50.241Z,-0.68
2022-12-18T14:13:32.036Z,-0.68
2022-12-18T14:16:00.967Z,-1.23
2022-12-18T14:18:43.054Z,-0.66
2022-12-18T14:21:22.039Z,-0.66
2022-12-18T14:23:49.044Z,-0.76
2022-12-18T14:26:30.725Z,-0.72
2022-12-18T14:28:58.656Z,-0.66
2022-12-18T14:31:28.369Z,-0.78
2022-12-18T14:33:55.693Z,-0.68
2022-12-18T14:36:27.864Z,-0.62
2022-12-18T14:38:58.794Z,-1.04
2022-12-18T14:41:26.394Z,-0.58
2022-12-18T14:43:54.952Z,-0.85
2022-12-18T14:46:37.360Z,-0.47
2022-12-18T14:49:19.073Z,-0.54
2022-12-18T14:51:56.277Z,-0.41
2022-12-18T14:54:25.159Z,-0.40
2022-12-18T14:57:26.489Z,-0.34
2022-12-18T14:59:53.550Z,-0.70
2022-12-18T15:02:28.804Z,-0.39
2022-12-18T15:05:22.531Z,-0.33
2022-12-18T15:07:56.839Z,-0.54
2022-12-18T15:10:30.495Z,-0.47
2022-12-18T15:12:57.526Z,-0.31
2022-12-18T15:15:40.576Z,-0.29
2022-12-18T15:18:13.064Z,-0.29
2022-12-18T15:21:00.019Z,-0.31
2022-12-18T15:23:45.227Z,-0.31
2022-12-18T15:26:16.014Z,-0.47
2022-12-18T15:28:58.434Z,-0.39
2022-12-18T15:31:36.464Z,-0.71
2022-12-18T15:34:13.853Z,-0.72
2022-12-18T15:36:41.185Z,-0.37
2022-12-18T15:39:12.153Z,-0.50
2022-12-18T15:41:39.209Z,-0.66
2022-12-18T15:44:26.924Z,-0.39
2022-12-18T15:46:53.996Z,-0.89
2022-12-18T15:49:21.091Z,-0.42
2022-12-18T15:51:57.280Z,-0.77
2022-12-18T15:54:44.235Z,-0.37
2022-12-18T15:57:24.468Z,-0.41
2022-12-18T15:59:59.123Z,-0.43
2022-12-18T16:02:27.364Z,-0.48
2022-12-18T16:04:55.427Z,-0.38
2022-12-18T16:07:25.232Z,-0.42
2022-12-18T16:09:53.677Z,-0.43
2022-12-18T16:12:24.778Z,-0.38
2022-12-18T16:14:51.827Z,-0.46
2022-12-18T16:17:19.123Z,-0.76
2022-12-18T16:19:46.521Z,-0.38
2022-12-18T16:22:23.303Z,-0.40
2022-12-18T16:24:51.907Z,-0.45
2022-12-18T16:27:19.606Z,-0.54
2022-12-18T16:29:46.717Z,-0.84
2022-12-18T16:32:19.973Z,-0.34
2022-12-18T16:34:47.566Z,-0.34
2022-12-18T16:37:16.332Z,-0.70
2022-12-18T16:39:44.038Z,-0.48
2022-12-18T16:42:20.852Z,-0.34
2022-12-18T16:44:49.995Z,-1.42
2022-12-18T16:47:17.820Z,-0.33
2022-12-18T16:49:51.721Z,-0.43
2022-12-18T16:52:19.464Z,-0.90
2022-12-18T16:54:46.474Z,-0.37
2022-12-18T16:57:16.081Z,-0.32
2022-12-18T16:59:43.179Z,-0.46
2022-12-18T17:02:24.001Z,-0.34
2022-12-18T17:04:53.990Z,-0.61
2022-12-18T17:07:21.169Z,-0.30
2022-12-18T17:09:48.867Z,-0.39
2022-12-18T17:12:15.772Z,-0.23
2022-12-18T17:14:42.663Z,-0.26
2022-12-18T17:17:24.917Z,-0.41
2022-12-18T17:19:52.373Z,-0.18
2022-12-18T17:22:19.929Z,-0.27
2022-12-18T17:24:47.503Z,-0.33
2022-12-18T17:27:14.546Z,-0.18
2022-12-18T17:29:47.253Z,-0.19
2022-12-18T17:32:16.280Z,-0.41
2022-12-18T17:34:43.169Z,-0.43
2022-12-18T17:37:10.066Z,-0.17
2022-12-18T17:39:37.012Z,-0.53
2022-12-18T17:42:04.035Z,-0.21
2022-12-18T17:44:33.855Z,-0.23
2022-12-18T17:47:00.781Z,-0.16
2022-12-18T17:49:27.814Z,-0.16
2022-12-18T17:51:54.731Z,-0.23
2022-12-18T17:54:21.623Z,-1.05
2022-12-18T17:56:49.045Z,-0.47
2022-12-18T17:59:16.712Z,-0.17
2022-12-18T18:01:45.276Z,-0.11
2022-12-18T18:04:13.068Z,-0.11
2022-12-18T18:06:40.113Z,-0.30
2022-12-18T18:09:15.170Z,-0.16
2022-12-18T18:12:03.721Z,-0.57
2022-12-18T18:14:31.035Z,-0.46
2022-12-18T18:17:02.842Z,-0.50
2022-12-18T18:19:31.932Z,-0.15
2022-12-18T18:21:58.853Z,-0.43
2022-12-18T18:24:26.140Z,-0.34
2022-12-18T18:26:53.389Z,-0.40
2022-12-18T18:29:26.219Z,-0.46
2022-12-18T18:31:54.078Z,-0.14
2022-12-18T18:34:26.997Z,-0.45
2022-12-18T18:36:53.906Z,-0.16
2022-12-18T18:39:21.101Z,-0.11
2022-12-18T18:41:48.855Z,-0.20
2022-12-18T18:44:16.639Z,-0.97
2022-12-18T18:46:43.606Z,-0.48
2022-12-18T18:49:10.542Z,-0.29
2022-12-18T18:51:37.453Z,-0.06
2022-12-18T18:54:04.415Z,-0.72
2022-12-18T18:59:18.849Z,-0.05
2022-12-18T19:01:46.022Z,-0.39
2022-12-18T19:04:13.308Z,-0.09
2022-12-18T19:06:40.252Z,-0.66
2022-12-18T19:09:07.641Z,-0.11
2022-12-18T19:11:53.125Z,-1.19
2022-12-18T19:14:20.441Z,-0.27
2022-12-18T19:16:47.657Z,-0.17
2022-12-18T19:19:17.246Z,-0.11
2022-12-18T19:21:44.345Z,0.06
2022-12-18T19:24:11.236Z,0.08
2022-12-18T19:26:38.678Z,-0.03
2022-12-18T19:29:07.612Z,0.05
2022-12-18T19:31:36.471Z,0.00
2022-12-18T19:34:05.171Z,-0.17
2022-12-18T19:36:32.486Z,0.10
2022-12-18T19:39:00.825Z,0.13
2022-12-18T19:41:31.177Z,-0.06
2022-12-18T19:43:59.798Z,0.19
2022-12-18T19:46:27.100Z,0.28
2022-12-18T19:48:54.049Z,0.25
2022-12-18T19:51:27.651Z,0.26
2022-12-18T19:53:58.388Z,0.17
2022-12-18T19:56:27.652Z,0.29
2022-12-18T19:58:54.897Z,0.29
2022-12-18T20:01:23.198Z,0.43
2022-12-18T20:03:52.652Z,0.41
2022-12-18T20:06:28.779Z,0.44
2022-12-18T20:09:00.801Z,0.43
2022-12-18T20:11:29.675Z,0.45
2022-12-18T20:13:57.646Z,0.52
2022-12-18T20:16:24.749Z,0.50
2022-12-18T20:18:57.757Z,0.31
2022-12-18T20:21:25.717Z,0.49
2022-12-18T20:23:52.737Z,0.55
2022-12-18T20:26:19.982Z,0.55
2022-12-18T20:28:46.949Z,0.13
2022-12-18T20:31:14.276Z,0.56
2022-12-18T20:33:42.591Z,0.57
2022-12-18T20:36:15.614Z,0.60
2022-12-18T20:38:46.003Z,0.26
2022-12-18T20:41:18.933Z,0.65
2022-12-18T20:43:46.062Z,0.61
2022-12-18T20:46:16.493Z,0.60
2022-12-18T20:48:44.832Z,0.60
2022-12-18T20:51:15.765Z,0.41
2022-12-18T20:53:43.364Z,0.66
2022-12-18T20:56:17.826Z,0.58
2022-12-18T20:58:54.943Z,0.22
2022-12-18T21:01:23.670Z,0.48
2022-12-18T21:03:51.508Z,0.60
2022-12-18T21:06:22.215Z,0.06
2022-12-18T21:08:49.700Z,0.15
2022-12-18T21:11:50.982Z,0.58
2022-12-18T21:14:38.191Z,0.50
2022-12-18T21:17:05.284Z,0.51
2022-12-18T21:19:32.383Z,0.52
2022-12-18T21:21:59.803Z,0.25
2022-12-18T21:24:28.191Z,0.31
2022-12-18T21:27:02.120Z,0.09
2022-12-18T21:29:29.294Z,0.31
2022-12-18T21:31:59.156Z,0.53
2022-12-18T21:34:28.791Z,0.58
2022-12-18T21:36:58.004Z,0.52
2022-12-18T21:39:27.435Z,0.59
2022-12-18T21:42:16.883Z,0.53
2022-12-18T21:44:45.226Z,0.55
2022-12-18T21:47:21.405Z,0.25
2022-12-18T21:49:53.367Z,0.58
2022-12-18T21:52:32.241Z,0.35
2022-12-18T21:55:09.497Z,0.53
2022-12-18T21:57:38.702Z,0.21
2022-12-18T22:00:10.144Z,0.53
2022-12-18T22:02:38.842Z,0.55
2022-12-18T22:05:06.390Z,0.58
2022-12-18T22:07:34.029Z,0.43
2022-12-18T22:10:01.983Z,0.41
2022-12-18T22:12:35.814Z,0.57
2022-12-18T22:15:14.349Z,0.61
2022-12-18T22:17:55.534Z,0.57
2022-12-18T22:20:28.380Z,0.26
2022-12-18T22:22:57.770Z,0.63
2022-12-18T22:25:24.805Z,0.61
2022-12-18T22:28:10.576Z,0.60
2022-12-18T22:30:37.553Z,0.54
2022-12-18T22:33:04.688Z,0.61
2022-12-18T22:35:31.663Z,0.42
2022-12-18T22:38:00.099Z,0.73
2022-12-18T22:40:28.248Z,0.74
2022-12-18T22:42:56.209Z,0.49
2022-12-18T22:45:24.783Z,0.53
2022-12-18T22:47:52.155Z,0.74
2022-12-18T22:50:19.429Z,0.74
2022-12-18T22:52:46.428Z,0.50
2022-12-18T22:55:13.391Z,0.63
2022-12-18T22:57:42.381Z,0.76
2022-12-18T23:00:17.881Z,0.87
2022-12-18T23:02:55.808Z,0.75
2022-12-18T23:05:27.187Z,0.85
2022-12-18T23:07:54.092Z,0.76
2022-12-18T23:10:21.054Z,0.86
2022-12-18T23:12:47.968Z,0.86
2022-12-18T23:15:14.875Z,0.91
2022-12-18T23:17:44.717Z,0.99
2022-12-18T23:20:11.965Z,0.97
2022-12-18T23:22:38.848Z,0.81
2022-12-18T23:25:05.864Z,0.69
2022-12-18T23:27:32.758Z,0.89
2022-12-18T23:29:59.630Z,1.04
2022-12-18T23:32:27.237Z,1.09
2022-12-18T23:34:54.146Z,0.96
2022-12-18T23:37:42.363Z,0.07
2022-12-18T23:40:08.312Z,0.74
2022-12-18T23:42:35.195Z,1.10
2022-12-18T23:45:04.506Z,0.76
2022-12-18T23:47:43.509Z,0.99
2022-12-18T23:50:12.596Z,1.10
2022-12-18T23:52:39.534Z,1.02
2022-12-18T23:55:06.853Z,1.03
2022-12-18T23:57:33.783Z,1.13
